createdAt,value
2019-03-31T00:04:26.481Z,101374.59
2019-03-31T00:09:30.102Z,101384.27
2019-03-31T00:14:34.027Z,101376.50
2019-03-31T00:19:37.290Z,101371.27
2019-03-31T00:24:40.289Z,101379.74
2019-03-31T00:29:43.342Z,101376.41
2019-03-31T00:34:46.387Z,101375.59
2019-03-31T00:39:49.477Z,101383.39
2019-03-31T00:44:52.459Z,101378.04
2019-03-31T00:49:55.441Z,101381.88
2019-03-31T00:54:58.437Z,101379.16
2019-03-31T01:00:02.150Z,101379.07
2019-03-31T01:05:08.758Z,101388.25
2019-03-31T01:10:14.286Z,101387.98
2019-03-31T01:15:22.195Z,101390.25
2019-03-31T01:20:26.122Z,101403.22
2019-03-31T01:25:29.212Z,101397.44
2019-03-31T01:30:33.567Z,101404.25
2019-03-31T01:35:36.999Z,101415.73
2019-03-31T01:40:40.357Z,101413.05
2019-03-31T01:45:43.642Z,101417.88
2019-03-31T01:50:46.700Z,101414.89
2019-03-31T01:55:50.281Z,101411.72
2019-03-31T02:00:56.812Z,101415.92
2019-03-31T02:06:00.913Z,101418.55
2019-03-31T02:11:04.319Z,101426.27
2019-03-31T02:16:08.169Z,101433.45
2019-03-31T02:21:11.300Z,101434.19
2019-03-31T02:26:15.151Z,101426.84
2019-03-31T02:31:19.282Z,101424.00
2019-03-31T02:36:23.043Z,101424.09
2019-03-31T02:41:26.755Z,101426.39
2019-03-31T02:46:30.172Z,101428.62
2019-03-31T02:51:33.520Z,101428.23
2019-03-31T02:56:39.291Z,101431.38
2019-03-31T03:01:45.280Z,101438.77
2019-03-31T03:06:52.848Z,101441.25
2019-03-31T03:11:58.061Z,101438.71
2019-03-31T03:17:01.710Z,101449.86
2019-03-31T03:22:05.002Z,101454.20
2019-03-31T03:27:08.522Z,101457.21
2019-03-31T03:32:11.930Z,101454.41
2019-03-31T03:37:15.731Z,101462.65
2019-03-31T03:42:18.730Z,101472.69
2019-03-31T03:47:22.888Z,101464.17
2019-03-31T03:52:25.877Z,101478.44
2019-03-31T03:57:28.852Z,101483.01
2019-03-31T04:02:31.946Z,101491.69
2019-03-31T04:07:35.571Z,101493.94
2019-03-31T04:12:39.265Z,101502.51
2019-03-31T04:17:42.654Z,101501.61
2019-03-31T04:22:46.120Z,101505.92
2019-03-31T04:27:49.790Z,101516.34
2019-03-31T04:32:53.395Z,101514.05
2019-03-31T04:37:57.022Z,101524.06
2019-03-31T04:43:00.312Z,101527.67
2019-03-31T04:48:03.516Z,101533.78
2019-03-31T04:53:07.702Z,101542.11
2019-03-31T04:58:13.555Z,101545.33
2019-03-31T05:03:16.884Z,101550.37
2019-03-31T05:08:20.836Z,101563.73
2019-03-31T05:13:24.526Z,101572.66
2019-03-31T05:18:27.808Z,101587.42
2019-03-31T05:23:31.426Z,101599.67
2019-03-31T05:28:34.833Z,101616.51
2019-03-31T05:33:38.335Z,101624.38
2019-03-31T05:38:41.672Z,101642.03
2019-03-31T05:43:45.096Z,101651.97
2019-03-31T05:48:48.397Z,101665.80
2019-03-31T05:53:51.379Z,101676.66
2019-03-31T05:58:54.690Z,101678.80
2019-03-31T06:03:57.968Z,101687.45
2019-03-31T06:09:00.940Z,101686.66
2019-03-31T06:14:04.262Z,101705.62
2019-03-31T06:19:07.924Z,101705.22
2019-03-31T06:24:11.869Z,101700.75
2019-03-31T06:29:14.891Z,101705.25
2019-03-31T06:34:17.983Z,101708.50
2019-03-31T06:39:20.965Z,101720.73
2019-03-31T06:44:24.317Z,101731.53
2019-03-31T06:49:27.305Z,101737.63
2019-03-31T06:54:31.469Z,101740.75
2019-03-31T06:59:34.490Z,101736.65
2019-03-31T07:04:38.273Z,101744.04
2019-03-31T07:09:41.546Z,101744.93
2019-03-31T07:14:44.537Z,101734.94
2019-03-31T07:19:47.752Z,101733.38
2019-03-31T07:24:50.978Z,101747.48
2019-03-31T07:29:55.002Z,101766.27
2019-03-31T07:34:58.643Z,101767.66
2019-03-31T07:40:02.342Z,101768.03
2019-03-31T07:45:08.525Z,101779.48
2019-03-31T07:50:12.871Z,101779.59
2019-03-31T07:55:17.687Z,101795.03
2019-03-31T08:00:21.802Z,101801.69
2019-03-31T08:05:32.987Z,101816.08
2019-03-31T08:10:32.068Z,101817.22
2019-03-31T08:15:36.140Z,101816.93
2019-03-31T08:20:39.482Z,101816.41
2019-03-31T08:25:42.479Z,101819.09
2019-03-31T08:30:45.514Z,101831.42
2019-03-31T08:35:49.774Z,101831.29
2019-03-31T08:40:54.367Z,101835.41
2019-03-31T08:45:57.318Z,101845.20
2019-03-31T08:51:01.196Z,101843.63
2019-03-31T08:56:04.170Z,101850.75
2019-03-31T09:01:11.196Z,101854.63
2019-03-31T09:06:14.340Z,101868.06
2019-03-31T09:11:17.572Z,101870.45
2019-03-31T09:16:20.585Z,101869.64
2019-03-31T09:21:23.685Z,101879.45
2019-03-31T09:26:27.862Z,101883.12
2019-03-31T09:31:30.961Z,101895.72
2019-03-31T09:36:34.661Z,101900.81
2019-03-31T09:41:37.652Z,101903.80
2019-03-31T09:46:41.013Z,101905.89
2019-03-31T09:51:44.620Z,101915.48
2019-03-31T09:56:47.607Z,101915.64
2019-03-31T10:01:50.934Z,101915.00
2019-03-31T10:06:55.390Z,101916.36
2019-03-31T10:11:58.788Z,101912.64
2019-03-31T10:17:01.994Z,101907.78
2019-03-31T10:22:05.010Z,101888.88
2019-03-31T10:27:08.493Z,101904.87
2019-03-31T10:32:12.110Z,101899.75
2019-03-31T10:37:15.167Z,101911.84
2019-03-31T10:42:18.753Z,101897.73
2019-03-31T10:47:22.784Z,101899.98
2019-03-31T10:52:26.310Z,101908.77
2019-03-31T10:57:30.582Z,101907.16
2019-03-31T11:02:34.147Z,101904.50
2019-03-31T11:07:37.557Z,101897.44
2019-03-31T11:12:40.912Z,101897.31
2019-03-31T11:17:44.198Z,101903.18
2019-03-31T11:22:52.979Z,101901.59
2019-03-31T11:27:57.910Z,101908.84
2019-03-31T11:33:01.180Z,101901.00
2019-03-31T11:38:04.488Z,101914.14
2019-03-31T11:43:07.641Z,101914.14
2019-03-31T11:48:11.461Z,101904.00
2019-03-31T11:53:14.483Z,101903.84
2019-03-31T11:58:18.136Z,101918.53
2019-03-31T12:03:21.827Z,101908.21
2019-03-31T12:08:24.851Z,101908.45
2019-03-31T12:13:28.586Z,101902.11
2019-03-31T12:18:31.563Z,101898.91
2019-03-31T12:23:35.521Z,101895.33
2019-03-31T12:28:39.472Z,101904.37
2019-03-31T12:33:43.741Z,101900.64
2019-03-31T12:38:46.885Z,101903.95
2019-03-31T12:43:51.022Z,101898.19
2019-03-31T12:48:54.613Z,101898.41
2019-03-31T12:53:58.680Z,101896.32
2019-03-31T12:59:02.573Z,101902.50
2019-03-31T13:04:05.761Z,101904.34
2019-03-31T13:09:09.062Z,101905.27
2019-03-31T13:14:12.519Z,101907.73
2019-03-31T13:19:16.379Z,101912.30
2019-03-31T13:24:19.667Z,101915.87
2019-03-31T13:29:23.397Z,101921.20
2019-03-31T13:34:26.409Z,101916.78
2019-03-31T13:39:29.520Z,101904.09
2019-03-31T13:44:33.325Z,101900.18
2019-03-31T13:49:36.312Z,101901.50
2019-03-31T13:54:40.439Z,101895.66
2019-03-31T13:59:44.062Z,101901.16
2019-03-31T14:04:51.699Z,101882.92
2019-03-31T14:09:52.645Z,101886.48
2019-03-31T14:14:56.886Z,101887.23
2019-03-31T14:20:00.864Z,101894.86
2019-03-31T14:25:04.644Z,101898.88
2019-03-31T14:30:10.825Z,101898.42
2019-03-31T14:35:14.045Z,101898.63
2019-03-31T14:40:17.118Z,101914.14
2019-03-31T14:45:31.959Z,101922.20
2019-03-31T14:50:39.200Z,101910.03
2019-03-31T14:55:42.578Z,101914.82
2019-03-31T15:00:45.641Z,101916.27
2019-03-31T15:05:48.964Z,101919.88
2019-03-31T15:10:52.342Z,101920.89
2019-03-31T15:15:56.192Z,101929.82
2019-03-31T15:20:59.203Z,101934.75
2019-03-31T15:26:03.070Z,101927.99
2019-03-31T15:31:06.402Z,101934.09
2019-03-31T15:36:10.702Z,101940.70
2019-03-31T15:41:21.028Z,101947.38
2019-03-31T15:46:19.283Z,101940.39
2019-03-31T15:51:22.307Z,101942.08
2019-03-31T15:56:25.437Z,101942.15
2019-03-31T16:01:28.425Z,101950.59
2019-03-31T16:06:31.448Z,101952.44
2019-03-31T16:11:33.646Z,101950.45
2019-03-31T16:16:35.884Z,101954.66
2019-03-31T16:21:38.048Z,101956.72
2019-03-31T16:26:41.068Z,101962.84
2019-03-31T16:31:43.500Z,101963.30
2019-03-31T16:36:45.695Z,101964.77
2019-03-31T16:41:48.264Z,101966.94
2019-03-31T16:46:50.507Z,101976.97
2019-03-31T16:51:52.976Z,101978.36
2019-03-31T16:56:55.151Z,101986.33
2019-03-31T17:01:58.315Z,101988.66
2019-03-31T17:07:00.616Z,101988.30
2019-03-31T17:12:03.932Z,101989.23
2019-03-31T17:17:07.372Z,101987.23
2019-03-31T17:22:09.821Z,102001.38
2019-03-31T17:27:14.082Z,102017.29
2019-03-31T17:32:16.829Z,102022.76
2019-03-31T17:37:19.062Z,102024.19
2019-03-31T17:42:21.348Z,102033.22
2019-03-31T17:47:23.574Z,102037.05
2019-03-31T17:52:26.759Z,102046.13
2019-03-31T17:57:29.029Z,102046.92
2019-03-31T18:02:31.778Z,102051.39
2019-03-31T18:07:34.887Z,102057.56
2019-03-31T18:12:37.875Z,102064.11
2019-03-31T18:17:40.101Z,102066.95
2019-03-31T18:22:42.761Z,102076.32
2019-03-31T18:27:45.457Z,102079.55
2019-03-31T18:32:48.382Z,102085.15
2019-03-31T18:37:50.962Z,102099.61
2019-03-31T18:42:53.867Z,102109.79
2019-03-31T18:48:00.994Z,102113.52
2019-03-31T18:53:03.194Z,102121.73
2019-03-31T18:58:17.358Z,102125.42
2019-03-31T19:03:34.683Z,102130.08
2019-03-31T19:14:04.623Z,102146.33
2019-03-31T19:19:21.491Z,102146.33
2019-03-31T19:24:46.743Z,102160.47
2019-03-31T19:30:15.562Z,102162.30
2019-03-31T19:35:33.361Z,102169.37
2019-03-31T19:41:02.978Z,102182.48
2019-03-31T19:46:05.940Z,102181.87
2019-03-31T19:51:27.072Z,102190.44
2019-03-31T19:56:50.169Z,102191.34
2019-03-31T20:02:10.121Z,102203.13
2019-03-31T20:07:35.111Z,102205.31
2019-03-31T20:12:56.984Z,102204.31
2019-03-31T20:18:25.084Z,102207.98
2019-03-31T20:23:43.038Z,102214.53
2019-03-31T20:28:56.283Z,102216.56
2019-03-31T20:34:18.494Z,102217.02
2019-03-31T20:39:56.861Z,102222.48
2019-03-31T20:44:59.423Z,102227.55
2019-03-31T20:50:07.050Z,102233.45
2019-03-31T20:55:16.456Z,102234.16
2019-03-31T21:00:15.088Z,102246.63
2019-03-31T21:05:18.570Z,102246.74
2019-03-31T21:10:20.758Z,102251.68
2019-03-31T21:15:23.117Z,102252.41
2019-03-31T21:20:25.397Z,102256.55
2019-03-31T21:25:27.614Z,102271.11
2019-03-31T21:30:30.449Z,102277.87
2019-03-31T21:35:33.553Z,102275.08
2019-03-31T21:40:35.773Z,102285.56
2019-03-31T21:45:38.542Z,102288.73
2019-03-31T21:50:41.011Z,102285.01
2019-03-31T21:55:43.641Z,102297.22
2019-03-31T22:00:53.687Z,102298.67
2019-03-31T22:05:56.513Z,102297.17
2019-03-31T22:10:58.771Z,102300.30
2019-03-31T22:16:00.996Z,102298.72
2019-03-31T22:21:03.769Z,102295.06
2019-03-31T22:26:06.078Z,102297.36
2019-03-31T22:31:08.512Z,102305.98
2019-03-31T22:36:20.136Z,102309.84
2019-03-31T22:41:23.872Z,102320.88
2019-03-31T22:46:26.419Z,102315.41
2019-03-31T22:51:28.601Z,102315.19
2019-03-31T22:56:30.786Z,102313.69
2019-03-31T23:01:33.816Z,102313.93
2019-03-31T23:06:37.747Z,102316.33
2019-03-31T23:11:41.790Z,102313.16
2019-03-31T23:16:44.698Z,102320.30
2019-03-31T23:21:46.839Z,102320.14
2019-03-31T23:26:50.171Z,102318.97
2019-03-31T23:31:52.967Z,102317.83
